Sligo Airport - TAF
(Terminal Area Forecast)

Issued at 17:36 UTC on Tue. 20-Feb-18

--- METARS(SA) ---

METAR EISG(SLIGO) 201700Z 29003KT 7000 BR NSC 07/05 Q1030 =

--- TAFS() ---

TAF EISG(SLIGO) 201700Z 2018/2103 VRB03KT 9999 FEW030 PROB30 TEMPO

2018/2124 4000 BR BECMG 2100/2103 14005KT =

--- SIGMETS(WS) ---

IE - No VALID SIGMETS/Warnings FOR THIS AREA

--- SIGMETS Volcanic(WV) ---

IE - No VALID SIGMETS/Warnings FOR THIS AREA

--- SIGMETS(WS) ---

UK - No VALID SIGMETS/Warnings FOR THIS AREA

Sligo Airport - METARs

Latest METARs for Sligo and Donegal Airports - updated every 30 mins